sensor_id;sensor_type;location;lat;lon;timestamp;P1;durP1;ratioP1;P2;durP2;ratioP2
19026;SDS011;9646;52.034;5.554;2022-07-23T00:01:49;2.83;;;2.10;;
19026;SDS011;9646;52.034;5.554;2022-07-23T00:04:16;3.97;;;2.00;;
19026;SDS011;9646;52.034;5.554;2022-07-23T00:06:44;3.40;;;2.25;;
19026;SDS011;9646;52.034;5.554;2022-07-23T00:09:11;3.40;;;1.98;;
19026;SDS011;9646;52.034;5.554;2022-07-23T00:11:38;4.00;;;2.30;;
19026;SDS011;9646;52.034;5.554;2022-07-23T00:14:05;2.88;;;2.08;;
19026;SDS011;9646;52.034;5.554;2022-07-23T00:16:32;3.13;;;1.95;;
19026;SDS011;9646;52.034;5.554;2022-07-23T00:18:59;2.05;;;1.83;;
19026;SDS011;9646;52.034;5.554;2022-07-23T00:21:27;2.25;;;1.98;;
19026;SDS011;9646;52.034;5.554;2022-07-23T00:23:56;2.30;;;2.10;;
19026;SDS011;9646;52.034;5.554;2022-07-23T00:26:23;3.25;;;1.90;;
19026;SDS011;9646;52.034;5.554;2022-07-23T00:28:50;4.03;;;2.78;;
19026;SDS011;9646;52.034;5.554;2022-07-23T00:31:17;3.20;;;2.13;;
19026;SDS011;9646;52.034;5.554;2022-07-23T00:33:44;3.47;;;2.08;;
19026;SDS011;9646;52.034;5.554;2022-07-23T00:36:11;2.55;;;2.15;;
19026;SDS011;9646;52.034;5.554;2022-07-23T00:38:38;4.10;;;2.10;;
19026;SDS011;9646;52.034;5.554;2022-07-23T00:41:06;2.92;;;2.15;;
19026;SDS011;9646;52.034;5.554;2022-07-23T00:43:33;4.28;;;2.20;;
19026;SDS011;9646;52.034;5.554;2022-07-23T00:46:01;4.28;;;1.88;;
19026;SDS011;9646;52.034;5.554;2022-07-23T00:48:28;4.07;;;1.75;;
19026;SDS011;9646;52.034;5.554;2022-07-23T00:50:55;3.63;;;2.20;;
19026;SDS011;9646;52.034;5.554;2022-07-23T00:53:22;3.53;;;2.00;;
19026;SDS011;9646;52.034;5.554;2022-07-23T00:55:49;5.72;;;2.50;;
19026;SDS011;9646;52.034;5.554;2022-07-23T00:58:17;2.95;;;1.98;;
19026;SDS011;9646;52.034;5.554;2022-07-23T01:00:45;2.20;;;2.00;;
19026;SDS011;9646;52.034;5.554;2022-07-23T01:03:12;2.60;;;1.58;;
19026;SDS011;9646;52.034;5.554;2022-07-23T01:05:40;2.53;;;2.00;;
19026;SDS011;9646;52.034;5.554;2022-07-23T01:08:07;2.20;;;2.00;;
19026;SDS011;9646;52.034;5.554;2022-07-23T01:10:34;3.78;;;2.20;;
19026;SDS011;9646;52.034;5.554;2022-07-23T01:13:02;2.88;;;2.20;;
19026;SDS011;9646;52.034;5.554;2022-07-23T01:15:31;3.00;;;2.17;;
19026;SDS011;9646;52.034;5.554;2022-07-23T01:17:58;2.88;;;1.95;;
19026;SDS011;9646;52.034;5.554;2022-07-23T01:20:25;3.25;;;2.10;;
19026;SDS011;9646;52.034;5.554;2022-07-23T01:22:54;2.85;;;2.00;;
19026;SDS011;9646;52.034;5.554;2022-07-23T01:25:21;3.08;;;2.30;;
19026;SDS011;9646;52.034;5.554;2022-07-23T01:27:48;2.50;;;2.00;;
19026;SDS011;9646;52.034;5.554;2022-07-23T01:30:16;2.95;;;1.80;;
19026;SDS011;9646;52.034;5.554;2022-07-23T01:32:43;2.72;;;1.92;;
19026;SDS011;9646;52.034;5.554;2022-07-23T01:35:10;4.97;;;1.90;;
19026;SDS011;9646;52.034;5.554;2022-07-23T01:37:37;2.20;;;1.98;;
19026;SDS011;9646;52.034;5.554;2022-07-23T01:40:06;5.07;;;2.45;;
19026;SDS011;9646;52.034;5.554;2022-07-23T01:42:33;4.05;;;2.00;;
19026;SDS011;9646;52.034;5.554;2022-07-23T01:45:01;4.95;;;2.33;;
19026;SDS011;9646;52.034;5.554;2022-07-23T01:47:28;3.05;;;2.00;;
19026;SDS011;9646;52.034;5.554;2022-07-23T01:49:55;3.20;;;1.98;;
19026;SDS011;9646;52.034;5.554;2022-07-23T01:52:22;1.90;;;1.70;;
19026;SDS011;9646;52.034;5.554;2022-07-23T01:54:49;3.55;;;1.98;;
19026;SDS011;9646;52.034;5.554;2022-07-23T01:57:17;2.65;;;1.90;;
19026;SDS011;9646;52.034;5.554;2022-07-23T01:59:44;2.85;;;1.90;;
19026;SDS011;9646;52.034;5.554;2022-07-23T02:02:11;3.72;;;2.22;;
19026;SDS011;9646;52.034;5.554;2022-07-23T02:04:38;3.50;;;2.20;;
19026;SDS011;9646;52.034;5.554;2022-07-23T02:07:05;2.72;;;1.77;;
19026;SDS011;9646;52.034;5.554;2022-07-23T02:09:32;2.78;;;1.92;;
19026;SDS011;9646;52.034;5.554;2022-07-23T02:12:00;2.60;;;1.70;;
19026;SDS011;9646;52.034;5.554;2022-07-23T02:14:28;2.35;;;1.88;;
19026;SDS011;9646;52.034;5.554;2022-07-23T02:16:55;3.08;;;1.80;;
19026;SDS011;9646;52.034;5.554;2022-07-23T02:19:22;4.93;;;2.00;;
19026;SDS011;9646;52.034;5.554;2022-07-23T02:21:49;3.10;;;1.95;;
19026;SDS011;9646;52.034;5.554;2022-07-23T02:24:16;4.93;;;2.10;;
19026;SDS011;9646;52.034;5.554;2022-07-23T02:26:43;2.20;;;2.00;;
19026;SDS011;9646;52.034;5.554;2022-07-23T02:29:10;2.88;;;1.80;;
19026;SDS011;9646;52.034;5.554;2022-07-23T02:31:39;3.05;;;1.77;;
19026;SDS011;9646;52.034;5.554;2022-07-23T02:34:06;3.72;;;1.92;;
19026;SDS011;9646;52.034;5.554;2022-07-23T02:36:36;3.20;;;1.88;;
19026;SDS011;9646;52.034;5.554;2022-07-23T02:39:03;2.72;;;2.10;;
19026;SDS011;9646;52.034;5.554;2022-07-23T02:41:30;3.15;;;1.90;;
19026;SDS011;9646;52.034;5.554;2022-07-23T02:43:57;3.95;;;2.00;;
19026;SDS011;9646;52.034;5.554;2022-07-23T02:46:24;3.58;;;2.05;;
19026;SDS011;9646;52.034;5.554;2022-07-23T02:48:53;2.58;;;1.70;;
19026;SDS011;9646;52.034;5.554;2022-07-23T02:51:20;3.15;;;1.80;;
19026;SDS011;9646;52.034;5.554;2022-07-23T02:53:47;2.97;;;1.92;;
19026;SDS011;9646;52.034;5.554;2022-07-23T02:56:14;3.67;;;1.83;;
19026;SDS011;9646;52.034;5.554;2022-07-23T02:58:41;5.38;;;2.10;;
19026;SDS011;9646;52.034;5.554;2022-07-23T03:01:08;4.35;;;1.80;;
19026;SDS011;9646;52.034;5.554;2022-07-23T03:03:35;1.95;;;1.73;;
19026;SDS011;9646;52.034;5.554;2022-07-23T03:06:03;5.03;;;1.60;;
19026;SDS011;9646;52.034;5.554;2022-07-23T03:08:30;2.17;;;1.63;;
19026;SDS011;9646;52.034;5.554;2022-07-23T03:10:58;3.53;;;2.15;;
19026;SDS011;9646;52.034;5.554;2022-07-23T03:13:25;2.50;;;2.30;;
19026;SDS011;9646;52.034;5.554;2022-07-23T03:15:52;3.45;;;1.77;;
19026;SDS011;9646;52.034;5.554;2022-07-23T03:18:19;3.78;;;1.83;;
19026;SDS011;9646;52.034;5.554;2022-07-23T03:20:46;3.72;;;2.13;;
19026;SDS011;9646;52.034;5.554;2022-07-23T03:23:15;4.40;;;1.70;;
19026;SDS011;9646;52.034;5.554;2022-07-23T03:25:42;1.60;;;1.42;;
19026;SDS011;9646;52.034;5.554;2022-07-23T03:28:11;2.42;;;1.70;;
19026;SDS011;9646;52.034;5.554;2022-07-23T03:30:39;3.67;;;1.90;;
19026;SDS011;9646;52.034;5.554;2022-07-23T03:33:06;5.32;;;1.88;;
19026;SDS011;9646;52.034;5.554;2022-07-23T03:35:33;2.55;;;2.33;;
19026;SDS011;9646;52.034;5.554;2022-07-23T03:38:00;5.03;;;2.08;;
19026;SDS011;9646;52.034;5.554;2022-07-23T03:40:28;3.70;;;1.95;;
19026;SDS011;9646;52.034;5.554;2022-07-23T03:42:55;4.15;;;2.20;;
19026;SDS011;9646;52.034;5.554;2022-07-23T03:45:22;1.92;;;1.70;;
19026;SDS011;9646;52.034;5.554;2022-07-23T03:47:49;2.35;;;1.85;;
19026;SDS011;9646;52.034;5.554;2022-07-23T03:50:16;4.13;;;1.98;;
19026;SDS011;9646;52.034;5.554;2022-07-23T03:52:43;2.22;;;1.70;;
19026;SDS011;9646;52.034;5.554;2022-07-23T03:55:10;4.10;;;1.90;;
19026;SDS011;9646;52.034;5.554;2022-07-23T03:57:39;2.85;;;2.10;;
19026;SDS011;9646;52.034;5.554;2022-07-23T04:00:06;2.22;;;1.80;;
19026;SDS011;9646;52.034;5.554;2022-07-23T04:02:34;2.30;;;1.83;;
19026;SDS011;9646;52.034;5.554;2022-07-23T04:05:01;1.98;;;1.35;;
19026;SDS011;9646;52.034;5.554;2022-07-23T04:07:28;3.08;;;2.00;;
19026;SDS011;9646;52.034;5.554;2022-07-23T04:09:55;3.80;;;1.80;;
19026;SDS011;9646;52.034;5.554;2022-07-23T04:12:22;3.97;;;1.90;;
19026;SDS011;9646;52.034;5.554;2022-07-23T04:14:51;3.63;;;1.73;;
19026;SDS011;9646;52.034;5.554;2022-07-23T04:17:18;2.00;;;1.67;;
19026;SDS011;9646;52.034;5.554;2022-07-23T04:19:45;5.50;;;1.80;;
19026;SDS011;9646;52.034;5.554;2022-07-23T04:22:12;2.53;;;1.50;;
19026;SDS011;9646;52.034;5.554;2022-07-23T04:24:39;2.10;;;1.60;;
19026;SDS011;9646;52.034;5.554;2022-07-23T04:27:06;2.20;;;1.52;;
19026;SDS011;9646;52.034;5.554;2022-07-23T04:29:33;4.68;;;1.92;;
19026;SDS011;9646;52.034;5.554;2022-07-23T04:32:01;4.07;;;1.50;;
19026;SDS011;9646;52.034;5.554;2022-07-23T04:34:28;3.22;;;1.52;;
19026;SDS011;9646;52.034;5.554;2022-07-23T04:36:55;2.97;;;1.77;;
19026;SDS011;9646;52.034;5.554;2022-07-23T04:39:22;3.90;;;1.75;;
19026;SDS011;9646;52.034;5.554;2022-07-23T04:41:49;2.15;;;1.67;;
19026;SDS011;9646;52.034;5.554;2022-07-23T04:44:16;2.38;;;1.55;;
19026;SDS011;9646;52.034;5.554;2022-07-23T04:46:44;2.90;;;1.88;;
19026;SDS011;9646;52.034;5.554;2022-07-23T04:49:12;2.22;;;1.80;;
19026;SDS011;9646;52.034;5.554;2022-07-23T04:51:39;2.55;;;1.63;;
19026;SDS011;9646;52.034;5.554;2022-07-23T04:54:06;4.40;;;1.80;;
19026;SDS011;9646;52.034;5.554;2022-07-23T04:56:33;2.85;;;1.80;;
19026;SDS011;9646;52.034;5.554;2022-07-23T04:59:00;3.65;;;2.33;;
19026;SDS011;9646;52.034;5.554;2022-07-23T05:01:27;1.90;;;1.48;;
19026;SDS011;9646;52.034;5.554;2022-07-23T05:03:54;3.33;;;1.73;;
19026;SDS011;9646;52.034;5.554;2022-07-23T05:06:22;4.78;;;2.00;;
19026;SDS011;9646;52.034;5.554;2022-07-23T05:08:49;2.13;;;1.90;;
19026;SDS011;9646;52.034;5.554;2022-07-23T05:11:16;5.75;;;1.95;;
19026;SDS011;9646;52.034;5.554;2022-07-23T05:13:44;2.95;;;2.15;;
19026;SDS011;9646;52.034;5.554;2022-07-23T05:16:11;5.93;;;2.00;;
19026;SDS011;9646;52.034;5.554;2022-07-23T05:18:38;5.00;;;2.20;;
19026;SDS011;9646;52.034;5.554;2022-07-23T05:21:05;2.20;;;2.00;;
19026;SDS011;9646;52.034;5.554;2022-07-23T05:23:33;3.58;;;1.88;;
19026;SDS011;9646;52.034;5.554;2022-07-23T05:26:00;3.28;;;2.20;;
19026;SDS011;9646;52.034;5.554;2022-07-23T05:28:27;5.40;;;1.98;;
19026;SDS011;9646;52.034;5.554;2022-07-23T05:30:54;3.65;;;2.40;;
19026;SDS011;9646;52.034;5.554;2022-07-23T05:33:21;3.75;;;2.03;;
19026;SDS011;9646;52.034;5.554;2022-07-23T05:35:48;3.15;;;2.10;;
19026;SDS011;9646;52.034;5.554;2022-07-23T05:38:15;3.63;;;2.10;;
19026;SDS011;9646;52.034;5.554;2022-07-23T05:40:44;3.85;;;2.58;;
19026;SDS011;9646;52.034;5.554;2022-07-23T05:43:11;5.03;;;2.63;;
19026;SDS011;9646;52.034;5.554;2022-07-23T05:45:38;4.57;;;2.15;;
19026;SDS011;9646;52.034;5.554;2022-07-23T05:48:05;2.70;;;1.90;;
19026;SDS011;9646;52.034;5.554;2022-07-23T05:50:32;3.63;;;2.25;;
19026;SDS011;9646;52.034;5.554;2022-07-23T05:52:59;4.88;;;2.47;;
19026;SDS011;9646;52.034;5.554;2022-07-23T05:55:26;3.92;;;2.30;;
19026;SDS011;9646;52.034;5.554;2022-07-23T05:57:55;2.53;;;2.00;;
19026;SDS011;9646;52.034;5.554;2022-07-23T06:00:23;1.80;;;1.42;;
19026;SDS011;9646;52.034;5.554;2022-07-23T06:02:50;2.40;;;2.13;;
19026;SDS011;9646;52.034;5.554;2022-07-23T06:05:17;2.92;;;2.20;;
19026;SDS011;9646;52.034;5.554;2022-07-23T06:07:44;3.78;;;1.90;;
19026;SDS011;9646;52.034;5.554;2022-07-23T06:10:11;3.20;;;1.92;;
19026;SDS011;9646;52.034;5.554;2022-07-23T06:12:38;4.15;;;2.33;;
19026;SDS011;9646;52.034;5.554;2022-07-23T06:15:08;2.50;;;1.90;;
19026;SDS011;9646;52.034;5.554;2022-07-23T06:17:35;3.97;;;1.90;;
19026;SDS011;9646;52.034;5.554;2022-07-23T06:20:04;3.65;;;2.13;;
19026;SDS011;9646;52.034;5.554;2022-07-23T06:22:31;5.70;;;2.50;;
19026;SDS011;9646;52.034;5.554;2022-07-23T06:24:58;4.18;;;2.00;;
19026;SDS011;9646;52.034;5.554;2022-07-23T06:27:25;3.08;;;1.40;;
19026;SDS011;9646;52.034;5.554;2022-07-23T06:29:52;1.95;;;1.60;;
19026;SDS011;9646;52.034;5.554;2022-07-23T06:32:21;3.70;;;1.80;;
19026;SDS011;9646;52.034;5.554;2022-07-23T06:34:48;3.75;;;1.67;;
19026;SDS011;9646;52.034;5.554;2022-07-23T06:37:15;2.60;;;1.77;;
19026;SDS011;9646;52.034;5.554;2022-07-23T06:39:42;1.73;;;1.48;;
19026;SDS011;9646;52.034;5.554;2022-07-23T06:42:09;2.58;;;1.92;;
19026;SDS011;9646;52.034;5.554;2022-07-23T06:44:36;2.35;;;1.13;;
19026;SDS011;9646;52.034;5.554;2022-07-23T06:47:04;2.33;;;1.77;;
19026;SDS011;9646;52.034;5.554;2022-07-23T06:49:32;4.00;;;2.00;;
19026;SDS011;9646;52.034;5.554;2022-07-23T06:51:59;3.58;;;2.20;;
19026;SDS011;9646;52.034;5.554;2022-07-23T06:54:26;3.28;;;1.70;;
19026;SDS011;9646;52.034;5.554;2022-07-23T06:56:53;2.22;;;1.42;;
19026;SDS011;9646;52.034;5.554;2022-07-23T06:59:20;3.08;;;1.40;;
19026;SDS011;9646;52.034;5.554;2022-07-23T07:01:47;3.90;;;1.92;;
19026;SDS011;9646;52.034;5.554;2022-07-23T07:04:14;3.95;;;1.73;;
19026;SDS011;9646;52.034;5.554;2022-07-23T07:06:43;4.10;;;1.80;;
19026;SDS011;9646;52.034;5.554;2022-07-23T07:09:10;1.98;;;1.30;;
19026;SDS011;9646;52.034;5.554;2022-07-23T07:11:37;5.07;;;1.70;;
19026;SDS011;9646;52.034;5.554;2022-07-23T07:14:04;3.85;;;1.42;;
19026;SDS011;9646;52.034;5.554;2022-07-23T07:16:31;3.05;;;1.52;;
19026;SDS011;9646;52.034;5.554;2022-07-23T07:18:58;2.85;;;1.05;;
19026;SDS011;9646;52.034;5.554;2022-07-23T07:21:25;2.17;;;1.38;;
19026;SDS011;9646;52.034;5.554;2022-07-23T07:23:54;1.02;;;0.93;;
19026;SDS011;9646;52.034;5.554;2022-07-23T07:26:21;4.40;;;0.95;;
19026;SDS011;9646;52.034;5.554;2022-07-23T07:28:48;2.25;;;1.10;;
19026;SDS011;9646;52.034;5.554;2022-07-23T07:31:15;1.92;;;1.50;;
19026;SDS011;9646;52.034;5.554;2022-07-23T07:33:42;2.65;;;1.58;;
19026;SDS011;9646;52.034;5.554;2022-07-23T07:36:09;1.30;;;1.20;;
19026;SDS011;9646;52.034;5.554;2022-07-23T07:38:36;1.92;;;1.52;;
19026;SDS011;9646;52.034;5.554;2022-07-23T07:41:05;2.60;;;1.27;;
19026;SDS011;9646;52.034;5.554;2022-07-23T07:43:32;3.10;;;1.70;;
19026;SDS011;9646;52.034;5.554;2022-07-23T07:45:59;2.65;;;1.85;;
19026;SDS011;9646;52.034;5.554;2022-07-23T07:48:26;3.05;;;1.70;;
19026;SDS011;9646;52.034;5.554;2022-07-23T07:50:53;3.83;;;1.80;;
19026;SDS011;9646;52.034;5.554;2022-07-23T07:53:21;3.50;;;2.20;;
19026;SDS011;9646;52.034;5.554;2022-07-23T07:55:48;3.22;;;2.20;;
19026;SDS011;9646;52.034;5.554;2022-07-23T07:58:16;4.63;;;2.40;;
19026;SDS011;9646;52.034;5.554;2022-07-23T08:00:43;4.53;;;2.63;;
19026;SDS011;9646;52.034;5.554;2022-07-23T08:03:10;4.05;;;2.50;;
19026;SDS011;9646;52.034;5.554;2022-07-23T08:05:37;2.83;;;2.22;;
19026;SDS011;9646;52.034;5.554;2022-07-23T08:08:04;2.85;;;2.22;;
19026;SDS011;9646;52.034;5.554;2022-07-23T08:10:31;4.28;;;2.60;;
19026;SDS011;9646;52.034;5.554;2022-07-23T08:12:58;6.40;;;2.72;;
19026;SDS011;9646;52.034;5.554;2022-07-23T08:15:28;4.03;;;2.20;;
19026;SDS011;9646;52.034;5.554;2022-07-23T08:17:56;4.95;;;3.33;;
19026;SDS011;9646;52.034;5.554;2022-07-23T08:20:24;3.75;;;2.88;;
19026;SDS011;9646;52.034;5.554;2022-07-23T08:22:52;2.22;;;1.73;;
19026;SDS011;9646;52.034;5.554;2022-07-23T08:25:20;2.10;;;1.83;;
19026;SDS011;9646;52.034;5.554;2022-07-23T08:27:47;3.60;;;2.00;;
19026;SDS011;9646;52.034;5.554;2022-07-23T08:30:14;3.80;;;1.85;;
19026;SDS011;9646;52.034;5.554;2022-07-23T08:32:51;3.22;;;1.67;;
19026;SDS011;9646;52.034;5.554;2022-07-23T08:35:20;2.85;;;1.80;;
19026;SDS011;9646;52.034;5.554;2022-07-23T08:37:48;3.22;;;2.08;;
19026;SDS011;9646;52.034;5.554;2022-07-23T08:40:15;3.00;;;1.98;;
19026;SDS011;9646;52.034;5.554;2022-07-23T08:42:42;7.38;;;2.60;;
19026;SDS011;9646;52.034;5.554;2022-07-23T08:45:09;5.30;;;3.20;;
19026;SDS011;9646;52.034;5.554;2022-07-23T08:47:38;4.65;;;3.45;;
19026;SDS011;9646;52.034;5.554;2022-07-23T08:50:07;3.28;;;1.92;;
19026;SDS011;9646;52.034;5.554;2022-07-23T08:52:34;3.00;;;2.63;;
19026;SDS011;9646;52.034;5.554;2022-07-23T08:55:03;3.35;;;2.90;;
19026;SDS011;9646;52.034;5.554;2022-07-23T08:57:30;3.90;;;1.98;;
19026;SDS011;9646;52.034;5.554;2022-07-23T08:59:57;2.33;;;2.10;;
19026;SDS011;9646;52.034;5.554;2022-07-23T09:02:24;3.92;;;2.00;;
19026;SDS011;9646;52.034;5.554;2022-07-23T09:04:51;2.72;;;1.70;;
19026;SDS011;9646;52.034;5.554;2022-07-23T09:07:19;3.35;;;1.80;;
19026;SDS011;9646;52.034;5.554;2022-07-23T09:09:47;2.92;;;1.50;;
19026;SDS011;9646;52.034;5.554;2022-07-23T09:12:19;2.72;;;1.58;;
19026;SDS011;9646;52.034;5.554;2022-07-23T09:14:46;2.33;;;1.35;;
19026;SDS011;9646;52.034;5.554;2022-07-23T09:17:14;2.40;;;1.60;;
19026;SDS011;9646;52.034;5.554;2022-07-23T09:19:42;1.40;;;1.30;;
19026;SDS011;9646;52.034;5.554;2022-07-23T09:22:16;3.03;;;2.20;;
19026;SDS011;9646;52.034;5.554;2022-07-23T09:27:28;2.67;;;1.70;;
19026;SDS011;9646;52.034;5.554;2022-07-23T09:30:11;3.33;;;2.13;;
19026;SDS011;9646;52.034;5.554;2022-07-23T09:32:38;3.90;;;1.70;;
19026;SDS011;9646;52.034;5.554;2022-07-23T09:35:06;2.58;;;1.70;;
19026;SDS011;9646;52.034;5.554;2022-07-23T09:37:33;3.15;;;1.33;;
19026;SDS011;9646;52.034;5.554;2022-07-23T09:40:03;3.45;;;2.10;;
19026;SDS011;9646;52.034;5.554;2022-07-23T09:42:32;3.90;;;2.00;;
19026;SDS011;9646;52.034;5.554;2022-07-23T09:44:59;3.83;;;1.95;;
19026;SDS011;9646;52.034;5.554;2022-07-23T09:47:27;2.72;;;1.88;;
19026;SDS011;9646;52.034;5.554;2022-07-23T09:49:58;2.38;;;1.40;;
19026;SDS011;9646;52.034;5.554;2022-07-23T09:52:26;3.80;;;1.52;;
19026;SDS011;9646;52.034;5.554;2022-07-23T09:54:57;3.55;;;1.90;;
19026;SDS011;9646;52.034;5.554;2022-07-23T09:57:25;1.77;;;1.20;;
19026;SDS011;9646;52.034;5.554;2022-07-23T09:59:55;1.63;;;1.00;;
19026;SDS011;9646;52.034;5.554;2022-07-23T10:02:24;1.75;;;1.00;;
19026;SDS011;9646;52.034;5.554;2022-07-23T10:04:51;3.08;;;1.50;;
19026;SDS011;9646;52.034;5.554;2022-07-23T10:07:20;0.95;;;0.80;;
19026;SDS011;9646;52.034;5.554;2022-07-23T10:09:48;1.23;;;0.75;;
19026;SDS011;9646;52.034;5.554;2022-07-23T10:12:18;2.22;;;1.45;;
19026;SDS011;9646;52.034;5.554;2022-07-23T10:14:52;1.98;;;0.82;;
19026;SDS011;9646;52.034;5.554;2022-07-23T10:17:20;1.70;;;1.10;;
19026;SDS011;9646;52.034;5.554;2022-07-23T10:19:47;2.58;;;1.13;;
19026;SDS011;9646;52.034;5.554;2022-07-23T10:22:15;1.52;;;1.10;;
19026;SDS011;9646;52.034;5.554;2022-07-23T10:24:47;5.65;;;2.42;;
19026;SDS011;9646;52.034;5.554;2022-07-23T10:27:24;2.05;;;1.58;;
19026;SDS011;9646;52.034;5.554;2022-07-23T10:29:59;1.45;;;1.17;;
19026;SDS011;9646;52.034;5.554;2022-07-23T10:32:33;3.00;;;1.40;;
19026;SDS011;9646;52.034;5.554;2022-07-23T10:35:04;4.07;;;1.33;;
19026;SDS011;9646;52.034;5.554;2022-07-23T10:37:35;1.83;;;1.13;;
19026;SDS011;9646;52.034;5.554;2022-07-23T10:40:09;2.53;;;1.10;;
19026;SDS011;9646;52.034;5.554;2022-07-23T10:42:37;2.85;;;1.20;;
19026;SDS011;9646;52.034;5.554;2022-07-23T10:45:25;2.95;;;2.03;;
19026;SDS011;9646;52.034;5.554;2022-07-23T10:47:53;3.22;;;1.60;;
19026;SDS011;9646;52.034;5.554;2022-07-23T10:50:22;2.45;;;1.20;;
19026;SDS011;9646;52.034;5.554;2022-07-23T10:55:42;2.90;;;1.25;;
19026;SDS011;9646;52.034;5.554;2022-07-23T10:58:09;3.55;;;1.25;;
19026;SDS011;9646;52.034;5.554;2022-07-23T11:00:37;3.08;;;1.60;;
19026;SDS011;9646;52.034;5.554;2022-07-23T11:03:21;2.08;;;1.27;;
19026;SDS011;9646;52.034;5.554;2022-07-23T11:05:52;2.25;;;1.17;;
19026;SDS011;9646;52.034;5.554;2022-07-23T11:08:19;3.35;;;2.75;;
19026;SDS011;9646;52.034;5.554;2022-07-23T11:10:48;4.03;;;2.22;;
19026;SDS011;9646;52.034;5.554;2022-07-23T11:13:28;3.47;;;1.75;;
19026;SDS011;9646;52.034;5.554;2022-07-23T11:16:05;6.13;;;2.58;;
19026;SDS011;9646;52.034;5.554;2022-07-23T11:18:58;3.78;;;2.78;;
19026;SDS011;9646;52.034;5.554;2022-07-23T11:24:14;1.70;;;1.08;;
19026;SDS011;9646;52.034;5.554;2022-07-23T11:26:44;3.97;;;2.30;;
19026;SDS011;9646;52.034;5.554;2022-07-23T11:31:59;3.80;;;2.10;;
19026;SDS011;9646;52.034;5.554;2022-07-23T11:34:29;9.98;;;3.20;;
19026;SDS011;9646;52.034;5.554;2022-07-23T11:36:57;9.43;;;3.15;;
19026;SDS011;9646;52.034;5.554;2022-07-23T11:39:25;10.40;;;3.33;;
19026;SDS011;9646;52.034;5.554;2022-07-23T11:41:52;9.55;;;3.20;;
19026;SDS011;9646;52.034;5.554;2022-07-23T11:44:26;4.40;;;2.50;;
19026;SDS011;9646;52.034;5.554;2022-07-23T11:46:56;5.57;;;2.50;;
19026;SDS011;9646;52.034;5.554;2022-07-23T11:49:24;5.30;;;2.13;;
19026;SDS011;9646;52.034;5.554;2022-07-23T11:52:05;7.93;;;2.45;;
19026;SDS011;9646;52.034;5.554;2022-07-23T11:54:33;4.93;;;2.45;;
19026;SDS011;9646;52.034;5.554;2022-07-23T11:57:00;4.20;;;2.20;;
19026;SDS011;9646;52.034;5.554;2022-07-23T11:59:28;3.75;;;1.92;;
19026;SDS011;9646;52.034;5.554;2022-07-23T12:01:57;4.20;;;2.17;;
19026;SDS011;9646;52.034;5.554;2022-07-23T12:04:24;4.10;;;2.17;;
19026;SDS011;9646;52.034;5.554;2022-07-23T12:06:52;9.55;;;2.60;;
19026;SDS011;9646;52.034;5.554;2022-07-23T12:09:20;2.78;;;1.75;;
19026;SDS011;9646;52.034;5.554;2022-07-23T12:11:57;2.83;;;1.60;;
19026;SDS011;9646;52.034;5.554;2022-07-23T12:14:24;4.32;;;2.08;;
19026;SDS011;9646;52.034;5.554;2022-07-23T12:17:06;2.10;;;1.83;;
19026;SDS011;9646;52.034;5.554;2022-07-23T12:19:33;3.72;;;1.80;;
19026;SDS011;9646;52.034;5.554;2022-07-23T12:22:00;2.92;;;1.95;;
19026;SDS011;9646;52.034;5.554;2022-07-23T12:24:29;3.95;;;1.85;;
19026;SDS011;9646;52.034;5.554;2022-07-23T12:27:08;4.53;;;1.50;;
19026;SDS011;9646;52.034;5.554;2022-07-23T12:29:36;4.20;;;1.70;;
19026;SDS011;9646;52.034;5.554;2022-07-23T12:32:15;4.32;;;1.80;;
19026;SDS011;9646;52.034;5.554;2022-07-23T12:34:42;3.00;;;1.80;;
19026;SDS011;9646;52.034;5.554;2022-07-23T12:37:23;3.13;;;2.00;;
19026;SDS011;9646;52.034;5.554;2022-07-23T12:39:52;2.25;;;1.60;;
19026;SDS011;9646;52.034;5.554;2022-07-23T12:42:19;3.10;;;2.22;;
19026;SDS011;9646;52.034;5.554;2022-07-23T12:45:03;2.63;;;1.70;;
19026;SDS011;9646;52.034;5.554;2022-07-23T12:47:30;2.72;;;1.77;;
19026;SDS011;9646;52.034;5.554;2022-07-23T12:49:57;3.90;;;1.90;;
19026;SDS011;9646;52.034;5.554;2022-07-23T12:52:24;2.00;;;1.40;;
19026;SDS011;9646;52.034;5.554;2022-07-23T12:54:52;3.55;;;2.13;;
19026;SDS011;9646;52.034;5.554;2022-07-23T12:57:19;2.53;;;1.55;;
19026;SDS011;9646;52.034;5.554;2022-07-23T13:00:09;2.30;;;1.95;;
19026;SDS011;9646;52.034;5.554;2022-07-23T13:02:44;3.22;;;1.90;;
19026;SDS011;9646;52.034;5.554;2022-07-23T13:05:19;1.80;;;1.60;;
19026;SDS011;9646;52.034;5.554;2022-07-23T13:07:46;4.00;;;1.90;;
19026;SDS011;9646;52.034;5.554;2022-07-23T13:10:13;3.25;;;2.30;;
19026;SDS011;9646;52.034;5.554;2022-07-23T13:12:40;4.10;;;1.73;;
19026;SDS011;9646;52.034;5.554;2022-07-23T13:15:07;3.05;;;1.80;;
19026;SDS011;9646;52.034;5.554;2022-07-23T13:17:35;2.47;;;1.60;;
19026;SDS011;9646;52.034;5.554;2022-07-23T13:20:02;2.50;;;1.45;;
19026;SDS011;9646;52.034;5.554;2022-07-23T13:22:30;2.72;;;1.50;;
19026;SDS011;9646;52.034;5.554;2022-07-23T13:24:57;3.38;;;1.60;;
19026;SDS011;9646;52.034;5.554;2022-07-23T13:27:24;1.45;;;1.30;;
19026;SDS011;9646;52.034;5.554;2022-07-23T13:29:51;3.78;;;1.73;;
19026;SDS011;9646;52.034;5.554;2022-07-23T13:32:18;1.90;;;1.35;;
19026;SDS011;9646;52.034;5.554;2022-07-23T13:34:45;2.30;;;1.40;;
19026;SDS011;9646;52.034;5.554;2022-07-23T13:37:13;4.35;;;1.40;;
19026;SDS011;9646;52.034;5.554;2022-07-23T13:39:41;3.58;;;1.48;;
19026;SDS011;9646;52.034;5.554;2022-07-23T13:42:08;3.67;;;1.40;;
19026;SDS011;9646;52.034;5.554;2022-07-23T13:44:35;2.88;;;1.23;;
19026;SDS011;9646;52.034;5.554;2022-07-23T13:47:02;1.73;;;1.40;;
19026;SDS011;9646;52.034;5.554;2022-07-23T13:49:29;1.48;;;1.30;;
19026;SDS011;9646;52.034;5.554;2022-07-23T13:51:56;1.40;;;1.10;;
19026;SDS011;9646;52.034;5.554;2022-07-23T13:54:23;2.33;;;1.38;;
19026;SDS011;9646;52.034;5.554;2022-07-23T13:56:52;2.22;;;1.20;;
19026;SDS011;9646;52.034;5.554;2022-07-23T13:59:19;2.97;;;1.40;;
19026;SDS011;9646;52.034;5.554;2022-07-23T14:01:46;2.80;;;1.55;;
19026;SDS011;9646;52.034;5.554;2022-07-23T14:04:13;2.17;;;1.50;;
19026;SDS011;9646;52.034;5.554;2022-07-23T14:06:40;2.15;;;1.38;;
19026;SDS011;9646;52.034;5.554;2022-07-23T14:09:07;2.15;;;1.42;;
19026;SDS011;9646;52.034;5.554;2022-07-23T14:11:34;3.95;;;1.55;;
19026;SDS011;9646;52.034;5.554;2022-07-23T14:14:02;2.10;;;1.35;;
19026;SDS011;9646;52.034;5.554;2022-07-23T14:16:29;1.52;;;1.27;;
19026;SDS011;9646;52.034;5.554;2022-07-23T14:18:56;1.42;;;1.30;;
19026;SDS011;9646;52.034;5.554;2022-07-23T14:21:23;2.25;;;1.30;;
19026;SDS011;9646;52.034;5.554;2022-07-23T14:23:51;2.88;;;1.63;;
19026;SDS011;9646;52.034;5.554;2022-07-23T14:26:18;2.67;;;1.35;;
19026;SDS011;9646;52.034;5.554;2022-07-23T14:28:45;2.47;;;1.67;;
19026;SDS011;9646;52.034;5.554;2022-07-23T14:31:13;2.15;;;1.30;;
19026;SDS011;9646;52.034;5.554;2022-07-23T14:33:40;2.22;;;1.30;;
19026;SDS011;9646;52.034;5.554;2022-07-23T14:36:07;1.85;;;1.42;;
19026;SDS011;9646;52.034;5.554;2022-07-23T14:38:34;2.33;;;1.40;;
19026;SDS011;9646;52.034;5.554;2022-07-23T14:41:01;3.28;;;1.50;;
19026;SDS011;9646;52.034;5.554;2022-07-23T14:43:31;2.33;;;1.50;;
19026;SDS011;9646;52.034;5.554;2022-07-23T14:45:58;1.42;;;1.27;;
19026;SDS011;9646;52.034;5.554;2022-07-23T14:48:27;3.00;;;1.55;;
19026;SDS011;9646;52.034;5.554;2022-07-23T14:50:54;3.20;;;1.42;;
19026;SDS011;9646;52.034;5.554;2022-07-23T14:53:21;2.05;;;1.30;;
19026;SDS011;9646;52.034;5.554;2022-07-23T14:55:48;3.50;;;1.83;;
19026;SDS011;9646;52.034;5.554;2022-07-23T14:58:15;2.63;;;1.42;;
19026;SDS011;9646;52.034;5.554;2022-07-23T15:00:42;3.05;;;1.67;;
19026;SDS011;9646;52.034;5.554;2022-07-23T15:03:09;2.47;;;1.58;;
19026;SDS011;9646;52.034;5.554;2022-07-23T15:05:38;1.83;;;1.35;;
19026;SDS011;9646;52.034;5.554;2022-07-23T15:08:05;1.83;;;1.35;;
19026;SDS011;9646;52.034;5.554;2022-07-23T15:10:32;3.05;;;1.75;;
19026;SDS011;9646;52.034;5.554;2022-07-23T15:12:59;3.45;;;1.80;;
19026;SDS011;9646;52.034;5.554;2022-07-23T15:15:26;3.80;;;1.20;;
19026;SDS011;9646;52.034;5.554;2022-07-23T15:17:53;1.70;;;1.38;;